Pellston Regional Airport of Emmet County Airport Pellston US
ICAO: KPLN
IATA: PLN
Category: Medium
Scheduled Services: Yes

Elevation: 721 ft
TransAlt. 18000 ft.

Airport Communications:
ASOS:119.025
MINNEAPOLIS CNTR:134.6
LANSING RDO:122.2
CTAF/UNICOM:123

KPLN Zoom In..

Runways:

(A) RW 05 length 5401 ft width 150 ft
---- / hdg 51

(B) RW 14 length 6513 ft width 150 ft
---- / hdg 141

(C) RW 23 length 5401 ft width 150 ft
---- / hdg 231

(D) RW 32 length 6513 ft width 150 ft
ILS 111.30 / hdg 321

Location; KPLN
Day. 21 / Time. 06.06 Zulu
* Altimeter: 29.80
* Temperature: 20° c. 68°f.
* Wind from: 100° Speed 05 kn.
Dewpoint: 19° c.
Visibility: 9 Statute Miles.
Clouds: Few 700 ft.
Clouds: Broken 2700 ft.
Clouds: Overcast 3600 ft.

KPLN 210606Z AUTO 10005KT 9SM FEW007 BKN027 OVC036 20/19 A2980 RMK AO2 T02000194


Wind From 100°
Speed 05 kn.

 
 
jpsmedia.com for Web Design worldairports.se 2018   terms of use